Huvudsida
METAR-TAF:

METAR-TAF

Flygplatser :

Tivats flygplats

Tivat, Montenegro

latitud: 42-24N, longitud: 018-44E, höjd: 5 m

Aktuellt väderrapport

Denna rapport gjordes för 22 minuter sedan, klockan 14:00 UTC
Vind 1 kt varierande vindriktning
Temperatur 15°C
Fuktighet 20%
Tryck 1028 hPa
Sikt 10 km eller mer
Inga moln under 1 500 m eller inga cumulonimbus

METAR: LYTV 221400Z VRB01KT CAVOK 15/M08 Q1028 NOSIG

Tid: 15:22 (14:22 UTC)

Väderprognos

Denna rapport gjordes för 3 timmar och 22 minuter sedan, klockan 11:00 UTC
Prognos gäller från 22 kl. 12 UTC till 23 kl. 12 UTC
Vind 8 kt från nordväst
Sikt 10 km eller mer
Inga moln under 1 500 m eller inga cumulonimbus

TAF: LYTV 221100Z 2212/2312 32008KT CAVOK TX15/2213Z TN01/2303Z

Aktuella väderrapporter och prognoser från 4000 flygplatser (METAR- och TAF-rapporter).

De tillgängliga stationerna syns som gula och röda prickar på kartan.

För musen över prickarna för att se namnen på stationerna.

Klicka sedan för att få väderrapporter och prognoser.

För att ändra kartan: Klicka på de gröna knapparna med ett svart kors på för att zooma in; den gröna knappen med ett streck på för att zooma ut; eller på de gröna pilarna för angränsande kartor.


METAR-TAF: